Terminal Aerodrome Forecast
Issued by NWS Atlanta, GA

Home | Current Version | Previous Version | Text Only | Print | Product List | Glossary On
Versions: 1 2 3 4 5 6 7 8 9 10 11 12 13 14 15 16 17 18 19 20 21 22 23 24 25 26 27 28 29 30 31
776
FTUS42 KFFC 072323
TAFAHN
TAF
KAHN 072323Z 0800/0824 28005KT P6SM BKN250
     FM081000 24004KT P6SM SCT035 BKN100
     FM081400 25007KT P6SM OVC025
     FM081800 26010G18KT P6SM SCT035 BKN050 PROB30 0818/0824 6SM
      -SHRA BKN035=

USA.gov is the U.S. government's official web portal to all federal, state and local government web resources and services.